createdAt,value
2018-12-12T00:02:09.364Z,32.10
2018-12-12T00:04:35.343Z,32.45
2018-12-12T00:07:01.335Z,32.05
2018-12-12T00:09:27.317Z,32.35
2018-12-12T00:11:53.328Z,32.12
2018-12-12T00:14:19.369Z,32.10
2018-12-12T00:16:45.287Z,32.17
2018-12-12T00:19:11.274Z,32.48
2018-12-12T00:21:37.255Z,31.96
2018-12-12T00:24:03.231Z,32.01
2018-12-12T00:26:29.209Z,31.95
2018-12-12T00:28:55.185Z,32.65
2018-12-12T00:31:21.175Z,32.21
2018-12-12T00:33:47.169Z,32.17
2018-12-12T00:36:13.156Z,31.89
2018-12-12T00:38:39.130Z,31.88
2018-12-12T00:41:05.113Z,31.89
2018-12-12T00:43:31.089Z,31.82
2018-12-12T00:45:57.055Z,31.82
2018-12-12T00:48:23.028Z,31.92
2018-12-12T00:50:49.012Z,31.67
2018-12-12T00:53:14.990Z,31.71
2018-12-12T00:55:40.974Z,31.95
2018-12-12T00:58:06.969Z,31.97
2018-12-12T01:00:32.997Z,31.96
2018-12-12T01:02:58.989Z,31.91
2018-12-12T01:05:24.990Z,31.67
2018-12-12T01:07:50.966Z,31.71
2018-12-12T01:10:16.954Z,31.86
2018-12-12T01:12:42.924Z,32.02
2018-12-12T01:15:08.887Z,31.58
2018-12-12T01:17:34.860Z,31.93
2018-12-12T01:20:00.860Z,31.62
2018-12-12T01:22:26.831Z,31.93
2018-12-12T01:24:52.795Z,31.49
2018-12-12T01:27:18.813Z,31.88
2018-12-12T01:29:44.808Z,31.98
2018-12-12T01:32:10.778Z,31.67
2018-12-12T01:34:36.766Z,32.05
2018-12-12T01:37:02.764Z,31.72
2018-12-12T01:39:28.741Z,31.91
2018-12-12T01:41:54.744Z,31.69
2018-12-12T01:44:20.744Z,31.98
2018-12-12T01:46:46.715Z,31.85
2018-12-12T01:49:12.682Z,31.49
2018-12-12T01:51:38.642Z,31.78
2018-12-12T01:54:04.646Z,31.32
2018-12-12T01:56:30.612Z,31.51
2018-12-12T01:58:56.576Z,31.46
2018-12-12T02:01:22.556Z,31.43
2018-12-12T02:03:48.544Z,31.26
2018-12-12T02:06:14.537Z,31.17
2018-12-12T02:08:40.516Z,31.41
2018-12-12T02:11:06.487Z,31.19
2018-12-12T02:13:32.451Z,31.53
2018-12-12T02:15:58.439Z,31.33
2018-12-12T02:18:24.416Z,31.23
2018-12-12T02:20:50.403Z,31.61
2018-12-12T02:23:16.388Z,31.21
2018-12-12T02:25:42.362Z,31.64
2018-12-12T02:28:08.359Z,31.15
2018-12-12T02:30:34.344Z,31.67
2018-12-12T02:33:00.316Z,31.44
2018-12-12T02:35:26.325Z,31.58
2018-12-12T02:37:52.300Z,31.54
2018-12-12T02:40:18.274Z,31.27
2018-12-12T02:42:44.259Z,31.49
2018-12-12T02:45:10.246Z,31.13
2018-12-12T02:47:36.227Z,31.24
2018-12-12T02:50:02.198Z,31.02
2018-12-12T02:52:28.162Z,31.00
2018-12-12T02:54:54.148Z,31.08
2018-12-12T02:57:20.139Z,31.02
2018-12-12T02:59:46.128Z,31.40
2018-12-12T03:02:12.104Z,31.36
2018-12-12T03:04:38.086Z,31.02
2018-12-12T03:07:04.075Z,31.30
2018-12-12T03:09:30.061Z,31.09
2018-12-12T03:11:56.059Z,31.15
2018-12-12T03:14:22.042Z,31.10
2018-12-12T03:16:48.048Z,31.19
2018-12-12T03:19:14.018Z,31.39
2018-12-12T03:21:40.006Z,31.37
2018-12-12T03:24:05.975Z,31.08
2018-12-12T03:26:31.975Z,31.05
2018-12-12T03:28:57.949Z,31.06
2018-12-12T03:31:23.930Z,30.80
2018-12-12T03:33:49.904Z,31.16
2018-12-12T03:36:15.893Z,31.58
2018-12-12T03:38:41.857Z,31.14
2018-12-12T03:41:07.860Z,30.80
2018-12-12T03:43:33.829Z,31.15
2018-12-12T03:45:59.805Z,30.69
2018-12-12T03:48:25.806Z,31.28
2018-12-12T03:50:51.809Z,30.79
2018-12-12T03:53:17.789Z,30.71
2018-12-12T03:55:43.784Z,30.74
2018-12-12T03:58:09.758Z,30.96
2018-12-12T04:00:35.740Z,30.69
2018-12-12T04:03:01.729Z,30.91
2018-12-12T04:05:27.732Z,30.64
2018-12-12T04:07:53.706Z,30.58
2018-12-12T04:10:19.687Z,31.02
2018-12-12T04:12:45.682Z,30.72
2018-12-12T04:15:11.658Z,30.63
2018-12-12T04:17:37.635Z,31.21
2018-12-12T04:20:03.636Z,30.78
2018-12-12T04:22:29.631Z,30.98
2018-12-12T04:24:55.615Z,30.83
2018-12-12T04:27:21.581Z,30.61
2018-12-12T04:29:47.570Z,30.56
2018-12-12T04:32:13.536Z,30.94
2018-12-12T04:34:39.542Z,30.43
2018-12-12T04:37:05.517Z,30.47
2018-12-12T04:39:31.483Z,30.74
2018-12-12T04:41:58.712Z,30.50
2018-12-12T04:44:23.486Z,30.59
2018-12-12T04:46:49.458Z,30.87
2018-12-12T04:49:15.448Z,30.50
2018-12-12T04:51:41.458Z,30.87
2018-12-12T04:54:07.448Z,30.84
2018-12-12T04:56:33.411Z,30.51
2018-12-12T04:58:59.392Z,30.85
2018-12-12T05:01:25.365Z,30.40
2018-12-12T05:03:51.373Z,30.47
2018-12-12T05:06:17.346Z,30.43
2018-12-12T05:08:43.318Z,30.67
2018-12-12T05:11:09.347Z,31.07
2018-12-12T05:13:35.326Z,30.79
2018-12-12T05:16:01.314Z,30.52
2018-12-12T05:18:27.329Z,30.75
2018-12-12T05:20:53.298Z,31.02
2018-12-12T05:23:19.290Z,30.50
2018-12-12T05:25:45.261Z,30.72
2018-12-12T05:28:11.268Z,30.46
2018-12-12T05:30:37.251Z,30.77
2018-12-12T05:33:03.253Z,30.84
2018-12-12T05:35:29.256Z,31.37
2018-12-12T05:37:55.247Z,31.31
2018-12-12T05:40:21.231Z,31.66
2018-12-12T05:42:47.197Z,31.62
2018-12-12T05:45:13.164Z,32.14
2018-12-12T05:47:39.149Z,32.30
2018-12-12T05:50:05.143Z,32.65
2018-12-12T05:52:31.107Z,32.71
2018-12-12T05:54:57.108Z,32.95
2018-12-12T05:57:23.106Z,33.00
2018-12-12T05:59:49.076Z,32.88
2018-12-12T06:02:15.075Z,33.08
2018-12-12T06:04:41.065Z,33.10
2018-12-12T06:07:07.080Z,33.10
2018-12-12T06:09:33.057Z,33.13
2018-12-12T06:11:59.012Z,33.07
2018-12-12T06:14:25.016Z,33.01
2018-12-12T06:16:51.032Z,32.55
2018-12-12T06:19:17.076Z,32.56
2018-12-12T06:21:42.966Z,32.59
2018-12-12T06:24:08.937Z,32.47
2018-12-12T06:26:37.532Z,32.50
2018-12-12T06:29:00.925Z,32.61
2018-12-12T06:31:26.888Z,32.32
2018-12-12T06:33:52.902Z,32.03
2018-12-12T06:36:18.906Z,32.22
2018-12-12T06:38:44.961Z,32.17
2018-12-12T06:41:10.922Z,32.43
2018-12-12T06:43:36.914Z,32.37
2018-12-12T06:46:02.868Z,32.15
2018-12-12T06:48:28.884Z,32.38
2018-12-12T06:50:54.867Z,32.49
2018-12-12T06:53:20.869Z,32.67
2018-12-12T06:55:46.849Z,32.82
2018-12-12T06:58:12.854Z,33.08
2018-12-12T07:00:38.884Z,33.17
2018-12-12T07:03:04.860Z,33.11
2018-12-12T07:05:30.840Z,33.32
2018-12-12T07:07:56.833Z,34.07
2018-12-12T07:10:22.817Z,34.15
2018-12-12T07:12:48.829Z,34.00
2018-12-12T07:15:14.857Z,34.00
2018-12-12T07:17:40.838Z,33.87
2018-12-12T07:20:06.853Z,34.07
2018-12-12T07:22:32.886Z,34.17
2018-12-12T07:24:58.972Z,34.17
2018-12-12T07:27:24.947Z,34.41
2018-12-12T07:29:50.961Z,34.16
2018-12-12T07:32:16.938Z,33.69
2018-12-12T07:34:42.929Z,33.68
2018-12-12T07:37:08.900Z,33.54
2018-12-12T07:39:36.014Z,33.69
2018-12-12T07:42:02.045Z,33.64
2018-12-12T07:44:28.898Z,33.56
2018-12-12T07:46:54.926Z,33.37
2018-12-12T07:49:24.517Z,33.44
2018-12-12T07:51:50.474Z,33.47
2018-12-12T07:54:16.485Z,33.69
2018-12-12T07:56:42.452Z,33.60
2018-12-12T07:59:08.556Z,33.01
2018-12-12T08:01:34.553Z,32.46
2018-12-12T08:04:00.556Z,30.89
2018-12-12T08:06:26.553Z,30.97
2018-12-12T08:08:52.530Z,31.72
2018-12-12T08:11:18.536Z,31.84
2018-12-12T08:13:44.537Z,31.72
2018-12-12T08:16:10.546Z,32.06
2018-12-12T08:18:36.525Z,31.37
2018-12-12T08:21:02.515Z,31.20
2018-12-12T08:23:28.485Z,31.65
2018-12-12T08:25:54.471Z,31.71
2018-12-12T08:28:20.462Z,31.67
2018-12-12T08:30:46.429Z,31.86
2018-12-12T08:33:12.439Z,31.84
2018-12-12T08:35:38.454Z,32.20
2018-12-12T08:38:04.787Z,32.03
2018-12-12T08:40:30.783Z,31.99
2018-12-12T08:42:56.781Z,32.15
2018-12-12T08:45:22.754Z,32.36
2018-12-12T08:47:48.890Z,32.79
2018-12-12T08:50:14.852Z,33.25
2018-12-12T08:52:40.850Z,33.31
2018-12-12T08:55:06.834Z,33.53
2018-12-12T08:57:32.831Z,33.47
2018-12-12T08:59:58.808Z,33.45
2018-12-12T09:02:24.782Z,33.52
2018-12-12T09:04:50.775Z,33.43
2018-12-12T09:07:16.763Z,33.22
2018-12-12T09:09:42.747Z,33.29
2018-12-12T09:12:08.729Z,33.23
2018-12-12T09:14:34.701Z,33.07
2018-12-12T09:17:00.686Z,33.00
2018-12-12T09:19:26.685Z,32.93
2018-12-12T09:21:52.788Z,32.78
2018-12-12T09:24:18.773Z,33.01
2018-12-12T09:26:44.773Z,33.06
2018-12-12T09:29:10.745Z,33.04
2018-12-12T09:31:36.739Z,32.82
2018-12-12T09:34:02.753Z,32.77
2018-12-12T09:36:28.734Z,32.75
2018-12-12T09:38:54.709Z,32.91
2018-12-12T09:41:20.755Z,32.71
2018-12-12T09:43:46.744Z,32.81
2018-12-12T09:46:12.702Z,32.58
2018-12-12T09:48:38.701Z,32.56
2018-12-12T09:51:07.316Z,32.74
2018-12-12T09:53:30.728Z,32.66
2018-12-12T09:55:56.692Z,32.62
2018-12-12T09:58:22.740Z,32.38
2018-12-12T10:00:48.645Z,32.49
2018-12-12T10:03:14.626Z,32.72
2018-12-12T10:05:40.622Z,32.98
2018-12-12T10:08:06.599Z,33.24
2018-12-12T10:10:32.574Z,33.24
2018-12-12T10:12:58.574Z,32.98
2018-12-12T10:15:24.536Z,33.02
2018-12-12T10:17:50.536Z,32.87
2018-12-12T10:20:16.545Z,32.62
2018-12-12T10:22:42.540Z,32.79
2018-12-12T10:25:08.563Z,32.56
2018-12-12T10:27:34.480Z,32.11
2018-12-12T10:30:00.467Z,32.13
2018-12-12T10:32:26.450Z,32.29
2018-12-12T10:34:52.419Z,32.31
2018-12-12T10:37:18.413Z,32.29
2018-12-12T10:39:44.380Z,32.19
2018-12-12T10:42:10.383Z,31.86
2018-12-12T10:44:36.356Z,32.19
2018-12-12T10:47:02.518Z,32.06
2018-12-12T10:49:28.503Z,31.88
2018-12-12T10:51:54.489Z,31.22
2018-12-12T10:54:20.467Z,31.63
2018-12-12T10:56:46.502Z,31.70
2018-12-12T10:59:12.489Z,31.61
2018-12-12T11:01:38.467Z,31.63
2018-12-12T11:04:04.441Z,31.84
2018-12-12T11:06:30.465Z,31.66
2018-12-12T11:08:56.451Z,31.92
2018-12-12T11:11:22.459Z,31.41
2018-12-12T11:13:48.453Z,31.60
2018-12-12T11:16:14.439Z,31.62
2018-12-12T11:18:40.419Z,31.20
2018-12-12T11:21:06.423Z,31.03
2018-12-12T11:23:32.412Z,31.55
2018-12-12T11:25:58.416Z,31.00
2018-12-12T11:28:24.410Z,31.24
2018-12-12T11:30:50.530Z,31.34
2018-12-12T11:33:16.594Z,31.25
2018-12-12T11:35:42.634Z,31.21
2018-12-12T11:38:08.663Z,31.19
2018-12-12T11:40:34.746Z,30.97
2018-12-12T11:43:00.796Z,31.05
2018-12-12T11:45:26.783Z,30.49
2018-12-12T11:47:52.774Z,30.75
2018-12-12T11:50:18.755Z,30.66
2018-12-12T11:52:44.714Z,30.52
2018-12-12T11:55:10.698Z,30.35
2018-12-12T11:57:36.677Z,30.84
2018-12-12T12:00:02.837Z,30.74
2018-12-12T12:02:28.804Z,30.81
2018-12-12T12:04:54.799Z,30.66
2018-12-12T12:07:20.806Z,30.76
2018-12-12T12:09:46.788Z,30.37
2018-12-12T12:12:12.796Z,30.37
2018-12-12T12:14:38.750Z,30.93
2018-12-12T12:17:04.752Z,31.25
2018-12-12T12:19:30.733Z,31.27
2018-12-12T12:21:56.729Z,31.25
2018-12-12T12:24:22.710Z,31.25
2018-12-12T12:26:48.694Z,31.32
2018-12-12T12:29:14.676Z,31.26
2018-12-12T12:31:40.662Z,31.11
2018-12-12T12:34:06.637Z,30.60
2018-12-12T12:36:32.633Z,31.25
2018-12-12T12:38:58.596Z,31.10
2018-12-12T12:41:24.574Z,31.27
2018-12-12T12:43:50.541Z,30.66
2018-12-12T12:46:16.544Z,31.04
2018-12-12T12:48:42.514Z,30.94
2018-12-12T12:51:08.479Z,30.81
2018-12-12T12:53:34.468Z,31.08
2018-12-12T12:56:00.471Z,30.99
2018-12-12T12:58:26.453Z,31.10
2018-12-12T13:00:52.458Z,30.55
2018-12-12T13:03:18.422Z,30.69
2018-12-12T13:05:44.398Z,30.86
2018-12-12T13:08:10.401Z,31.02
2018-12-12T13:10:36.364Z,30.85
2018-12-12T13:13:02.371Z,31.12
2018-12-12T13:15:28.346Z,30.66
2018-12-12T13:17:54.335Z,30.20
2018-12-12T13:20:20.305Z,30.75
2018-12-12T13:22:46.321Z,30.82
2018-12-12T13:25:12.311Z,30.30
2018-12-12T13:27:38.288Z,30.87
2018-12-12T13:30:04.596Z,30.36
2018-12-12T13:32:30.597Z,30.57
2018-12-12T13:34:56.585Z,30.57
2018-12-12T13:37:22.588Z,30.62
2018-12-12T13:39:48.551Z,30.21
2018-12-12T13:42:14.550Z,30.81
2018-12-12T13:44:40.520Z,31.07
2018-12-12T13:47:06.531Z,30.66
2018-12-12T13:49:32.490Z,30.62
2018-12-12T13:51:58.482Z,30.71
2018-12-12T13:54:24.479Z,30.63
2018-12-12T13:56:50.462Z,30.57
2018-12-12T13:59:16.440Z,30.75
2018-12-12T14:01:42.450Z,30.08
2018-12-12T14:04:08.435Z,30.63
2018-12-12T14:06:34.449Z,30.79
2018-12-12T14:09:00.423Z,30.56
2018-12-12T14:11:26.468Z,30.66
2018-12-12T14:13:52.450Z,30.67
2018-12-12T14:16:18.431Z,30.54
2018-12-12T14:18:44.427Z,30.51
2018-12-12T14:21:10.413Z,30.57
2018-12-12T14:23:36.396Z,30.36
2018-12-12T14:26:02.405Z,31.05
2018-12-12T14:28:28.402Z,30.81
2018-12-12T14:30:54.388Z,30.90
2018-12-12T14:33:20.406Z,30.85
2018-12-12T14:35:46.448Z,30.93
2018-12-12T14:38:12.412Z,30.96
2018-12-12T14:40:38.438Z,30.81
2018-12-12T14:43:04.420Z,30.65
2018-12-12T14:45:30.419Z,31.04
2018-12-12T14:47:56.408Z,30.81
2018-12-12T14:50:22.403Z,30.67
2018-12-12T14:52:48.394Z,30.61
2018-12-12T14:55:14.369Z,30.84
2018-12-12T14:57:40.353Z,30.75
2018-12-12T15:00:06.390Z,30.74
2018-12-12T15:02:32.365Z,30.79
2018-12-12T15:04:58.343Z,30.45
2018-12-12T15:07:24.320Z,30.58
2018-12-12T15:09:50.312Z,30.89
2018-12-12T15:12:16.328Z,30.64
2018-12-12T15:14:42.330Z,30.75
2018-12-12T15:17:08.307Z,30.46
2018-12-12T15:19:34.325Z,30.22
2018-12-12T15:22:00.299Z,30.70
2018-12-12T15:24:26.290Z,30.32
2018-12-12T15:26:52.280Z,30.61
2018-12-12T15:29:18.274Z,30.25
2018-12-12T15:31:44.244Z,30.51
2018-12-12T15:34:10.233Z,30.80
2018-12-12T15:36:36.212Z,30.47
2018-12-12T15:39:02.205Z,30.77
2018-12-12T15:41:28.208Z,30.63
2018-12-12T15:43:54.170Z,30.74
2018-12-12T15:46:20.147Z,30.87
2018-12-12T15:48:46.142Z,30.88
2018-12-12T15:51:12.126Z,30.61
2018-12-12T15:53:38.130Z,30.73
2018-12-12T15:56:04.115Z,31.11
2018-12-12T15:58:30.145Z,30.96
2018-12-12T16:00:56.112Z,31.15
2018-12-12T16:03:22.108Z,31.21
2018-12-12T16:05:48.193Z,31.10
2018-12-12T16:08:14.164Z,31.27
2018-12-12T16:10:40.147Z,31.28
2018-12-12T16:13:06.152Z,31.31
2018-12-12T16:15:32.139Z,31.38
2018-12-12T16:17:58.184Z,31.34
2018-12-12T16:20:24.151Z,31.21
2018-12-12T16:22:50.137Z,31.34
2018-12-12T16:25:16.109Z,31.12
2018-12-12T16:27:42.129Z,31.02
2018-12-12T16:30:08.123Z,31.32
2018-12-12T16:32:37.122Z,31.46
2018-12-12T16:35:03.158Z,31.51
2018-12-12T16:37:29.126Z,31.48
2018-12-12T16:39:55.100Z,31.59
2018-12-12T16:42:21.085Z,31.78
2018-12-12T16:44:47.071Z,31.91
2018-12-12T16:47:13.045Z,32.04
2018-12-12T16:49:39.065Z,32.12
2018-12-12T16:52:05.065Z,32.22
2018-12-12T16:54:31.057Z,32.21
2018-12-12T16:56:57.037Z,32.28
2018-12-12T16:59:23.027Z,32.29
2018-12-12T17:01:49.005Z,32.27
2018-12-12T17:04:14.992Z,32.38
2018-12-12T17:06:40.957Z,32.46
2018-12-12T17:09:06.944Z,32.47
2018-12-12T17:11:32.917Z,32.51
2018-12-12T17:13:58.889Z,32.57
2018-12-12T17:16:24.887Z,32.59
2018-12-12T17:18:50.860Z,32.70
2018-12-12T17:21:16.845Z,32.72
2018-12-12T17:23:42.868Z,32.70
2018-12-12T17:26:08.851Z,32.82
2018-12-12T17:28:34.830Z,32.75
2018-12-12T17:31:00.827Z,32.71
2018-12-12T17:33:26.803Z,32.73
2018-12-12T17:35:52.849Z,33.23
2018-12-12T17:38:18.853Z,33.51
2018-12-12T17:40:44.837Z,34.19
2018-12-12T17:43:10.845Z,34.41
2018-12-12T17:45:36.820Z,34.25
2018-12-12T17:48:02.790Z,35.07
2018-12-12T17:50:28.781Z,35.13
2018-12-12T17:52:54.804Z,35.33
2018-12-12T17:55:20.781Z,35.55
2018-12-12T17:57:46.795Z,35.67
2018-12-12T18:00:12.793Z,35.64
2018-12-12T18:02:38.780Z,34.90
2018-12-12T18:05:04.780Z,35.17
2018-12-12T18:07:30.772Z,35.09
2018-12-12T18:09:56.974Z,35.35
2018-12-12T18:12:22.976Z,35.42
2018-12-12T18:14:54.924Z,35.51
2018-12-12T18:17:20.914Z,35.42
2018-12-12T18:19:46.895Z,35.36
2018-12-12T18:22:12.873Z,35.30
2018-12-12T18:24:38.886Z,35.32
2018-12-12T18:27:04.867Z,35.25
2018-12-12T18:29:30.857Z,35.21
2018-12-12T18:31:56.847Z,35.20
2018-12-12T18:34:22.845Z,35.21
2018-12-12T18:36:48.841Z,35.04
2018-12-12T18:39:14.842Z,35.09
2018-12-12T18:41:43.328Z,35.37
2018-12-12T18:44:09.409Z,35.01
2018-12-12T18:46:35.387Z,34.99
2018-12-12T18:49:01.401Z,35.12
2018-12-12T18:51:27.376Z,34.92
2018-12-12T18:53:53.414Z,34.98
2018-12-12T18:56:19.485Z,34.88
2018-12-12T18:58:45.456Z,34.84
2018-12-12T19:01:11.430Z,34.79
2018-12-12T19:03:37.440Z,34.84
2018-12-12T19:06:03.455Z,34.86
2018-12-12T19:08:29.413Z,34.75
2018-12-12T19:10:55.400Z,34.69
2018-12-12T19:13:21.387Z,34.45
2018-12-12T19:15:47.353Z,34.02
2018-12-12T19:18:13.361Z,34.20
2018-12-12T19:20:39.357Z,34.23
2018-12-12T19:23:05.342Z,34.45
2018-12-12T19:25:31.318Z,34.55
2018-12-12T19:27:57.328Z,34.41
2018-12-12T19:30:23.295Z,34.41
2018-12-12T19:32:49.286Z,34.38
2018-12-12T19:35:15.308Z,34.37
2018-12-12T19:37:41.291Z,34.31
2018-12-12T19:40:07.269Z,34.34
2018-12-12T19:42:33.288Z,34.25
2018-12-12T19:44:59.280Z,34.20
2018-12-12T19:47:25.269Z,34.25
2018-12-12T19:49:51.285Z,34.21
2018-12-12T19:52:17.272Z,34.17
2018-12-12T19:54:43.238Z,34.15
2018-12-12T19:57:09.242Z,34.12
2018-12-12T19:59:35.334Z,34.23
2018-12-12T20:02:01.299Z,34.13
2018-12-12T20:04:27.761Z,34.09
2018-12-12T20:06:53.798Z,34.12
2018-12-12T20:09:19.779Z,34.12
2018-12-12T20:11:45.736Z,34.00
2018-12-12T20:14:11.727Z,34.05
2018-12-12T20:16:37.713Z,34.07
2018-12-12T20:19:03.701Z,33.95
2018-12-12T20:21:29.680Z,33.96
2018-12-12T20:23:55.679Z,34.06
2018-12-12T20:26:21.638Z,33.95
2018-12-12T20:28:47.689Z,34.03
2018-12-12T20:31:13.654Z,33.95
2018-12-12T20:33:39.634Z,33.98
2018-12-12T20:36:05.643Z,33.89
2018-12-12T20:38:31.802Z,33.93
2018-12-12T20:40:57.801Z,33.75
2018-12-12T20:43:23.798Z,33.89
2018-12-12T20:45:49.782Z,33.85
2018-12-12T20:48:15.770Z,34.03
2018-12-12T20:50:41.744Z,33.79
2018-12-12T20:53:07.723Z,33.91
2018-12-12T20:55:33.696Z,33.97
2018-12-12T20:57:59.720Z,33.96
2018-12-12T21:00:25.701Z,33.83
2018-12-12T21:02:51.769Z,33.81
2018-12-12T21:05:17.780Z,33.91
2018-12-12T21:07:43.785Z,33.90
2018-12-12T21:10:09.754Z,33.81
2018-12-12T21:12:35.742Z,33.82
2018-12-12T21:15:01.727Z,33.84
2018-12-12T21:17:27.748Z,33.88
2018-12-12T21:19:53.726Z,33.92
2018-12-12T21:22:19.706Z,33.93
2018-12-12T21:24:45.684Z,34.22
2018-12-12T21:27:11.644Z,34.95
2018-12-12T21:29:37.636Z,35.45
2018-12-12T21:32:03.639Z,34.63
2018-12-12T21:34:29.633Z,34.58
2018-12-12T21:36:55.667Z,34.39
2018-12-12T21:39:22.443Z,34.33
2018-12-12T21:41:49.064Z,34.15
2018-12-12T21:44:15.040Z,34.00
2018-12-12T21:46:42.506Z,34.04
2018-12-12T21:49:10.297Z,34.05
2018-12-12T21:51:42.632Z,34.01
2018-12-12T21:54:15.704Z,33.87
2018-12-12T21:56:43.852Z,33.93
2018-12-12T21:59:09.898Z,33.86
2018-12-12T22:01:35.884Z,33.78
2018-12-12T22:04:02.060Z,33.54
2018-12-12T22:06:28.032Z,33.38
2018-12-12T22:08:54.006Z,33.31
2018-12-12T22:11:20.253Z,32.83
2018-12-12T22:13:46.227Z,32.76
2018-12-12T22:16:12.211Z,33.14
2018-12-12T22:18:38.229Z,32.07
2018-12-12T22:21:04.232Z,32.62
2018-12-12T22:23:30.215Z,32.02
2018-12-12T22:25:56.212Z,31.97
2018-12-12T22:28:22.186Z,32.25
2018-12-12T22:30:48.170Z,31.51
2018-12-12T22:33:14.162Z,31.38
2018-12-12T22:35:40.186Z,31.33
2018-12-12T22:38:06.162Z,31.66
2018-12-12T22:40:32.128Z,31.55
2018-12-12T22:42:58.119Z,31.29
2018-12-12T22:45:24.096Z,31.21
2018-12-12T22:47:50.067Z,31.44
2018-12-12T22:50:16.028Z,31.40
2018-12-12T22:52:42.042Z,31.31
2018-12-12T22:55:08.002Z,31.33
2018-12-12T22:57:33.986Z,30.82
2018-12-12T22:59:59.944Z,31.45
2018-12-12T23:02:25.921Z,30.59
2018-12-12T23:04:51.905Z,31.08
2018-12-12T23:07:17.885Z,30.73
2018-12-12T23:09:43.850Z,30.37
2018-12-12T23:12:09.845Z,30.79
2018-12-12T23:14:35.846Z,30.37
2018-12-12T23:17:01.815Z,30.46
2018-12-12T23:19:27.787Z,30.83
2018-12-12T23:21:53.779Z,30.59
2018-12-12T23:24:25.128Z,30.75
2018-12-12T23:26:45.750Z,30.45
2018-12-12T23:29:11.732Z,30.59
2018-12-12T23:31:37.703Z,30.89
2018-12-12T23:34:03.671Z,30.21
2018-12-12T23:36:29.665Z,30.56
2018-12-12T23:38:55.616Z,30.33
2018-12-12T23:41:21.617Z,30.19
2018-12-12T23:43:47.600Z,30.01
2018-12-12T23:46:13.579Z,30.01
2018-12-12T23:48:39.547Z,29.98
2018-12-12T23:51:05.512Z,29.77
2018-12-12T23:53:31.526Z,30.43
2018-12-12T23:55:57.493Z,29.96
2018-12-12T23:58:23.478Z,30.43
